You are listening to:
UUEE Twr/App/Radar - Moscow, Russia

UUEE 250430Z 23002MPS 200V260 CAVOK 16/10 Q1020 R24C/CLRD62 R24R/CLRD62 NOSIG

If stream doesn't start automatically press the play button
If stream stops then reload player then press play